Caribbean Princess — ZCDG8 — position and weather

sailwx.info

Track history (hours):
 
Tides and Currents Weather Stations Pressure Air Temp Water Temp Dewpoint Dewpoint Depression Visibility Wind Speed Wind Dir Waves Ship Positions

Caribbean Princess

Operator: Princess Cruises

Last reported at 2017-Feb-26 03:23 UTC. Time now 2017-Feb-28 05:41 UTC.
Position N 24°34' W 079°34'.

Type: Passenger vessel. MMSI: 310423000.

Date/timePositionNaut miles runAvg speedWind from/ knotsBaromVisibWave heightAir tempDewpointWater temp
2017-Feb-26 03:23N 24°34' W 079°34'5418.8
2017-Feb-26 00:32N 25°27' W 079°38'1616.3
2017-Feb-25 23:34N 25°43' W 079°39'1716.8
2017-Feb-25 22:34N 25°54' W 079°53'1615.7
2017-Feb-25 21:34N 26°06' W 080°04'3 2.4
2017-Feb-25 20:31N 26°06' W 080°07'0 0.0
2017-Feb-25 19:28N 26°06' W 080°07'0 0.0
2017-Feb-25 18:31N 26°06' W 080°07'0 0.0
2017-Feb-25 17:31N 26°06' W 080°07'0 0.0
2017-Feb-25 16:31N 26°06' W 080°07'0 0.0
2017-Feb-25 15:31N 26°06' W 080°07'0 0.0
2017-Feb-25 14:19N 26°06' W 080°07'0 0.0
2017-Feb-25 13:31N 26°06' W 080°07'0 0.0
2017-Feb-25 12:31N 26°06' W 080°07'0 0.0
2017-Feb-25 11:33N 26°06' W 080°07'7 6.5
2017-Feb-25 10:33N 26°06' W 079°60'1212.3
2017-Feb-25 09:34N 26°02' W 079°47'1312.5
2017-Feb-25 08:34N 25°51' W 079°40'1414.2
2017-Feb-25 07:33N 25°37' W 079°39'1515.2
2017-Feb-25 06:33N 25°22' W 079°38'49315.9
2017-Feb-23 23:33N 20°37' W 086°55'8 8.0
2017-Feb-23 22:31N 20°29' W 086°59'0 0.0
2017-Feb-23 21:32N 20°29' W 086°59'0 0.0
2017-Feb-23 20:31N 20°29' W 086°59'0 0.0
2017-Feb-23 19:31N 20°29' W 086°59'0 0.0
2017-Feb-23 18:31N 20°29' W 086°59'0 0.0
2017-Feb-23 17:31N 20°29' W 086°59'0 0.0
2017-Feb-23 16:28N 20°29' W 086°59'0 0.0
2017-Feb-23 15:28N 20°29' W 086°59'0 0.0
2017-Feb-23 14:31N 20°29' W 086°59'0 0.0
2017-Feb-23 13:25N 20°29' W 086°59'0 0.2
2017-Feb-23 12:34N 20°29' W 086°59'8 7.9
2017-Feb-23 11:32N 20°23' W 087°04'35 0.7
2017-Feb-21 08:00N 20°00' W 086°36'24220.2 120 / 251017.610.8 27.024.129.0
2017-Feb-20 20:00N 23°00' W 083°42'24220.2 050 / 101016.510.8 30.025.829.0
2017-Feb-20 08:00N 24°42' W 079°42'5120.8 080 / 151016.910.8 24.017.625.0
2017-Feb-20 05:34N 25°31' W 079°53'1515.3
2017-Feb-20 04:33N 25°45' W 080°01'3 3.4
2017-Feb-20 03:33N 25°44' W 079°58'2221.8
2017-Feb-20 02:34N 25°29' W 079°40'6 2.9
2017-Feb-20 00:27N 25°23' W 079°39'1618.6
2017-Feb-19 23:33N 25°39' W 079°39'1818.0
2017-Feb-19 22:34N 25°54' W 079°51'1716.6
2017-Feb-19 21:33N 26°05' W 080°04'2 2.3
2017-Feb-19 20:31N 26°05' W 080°07'0 0.0
2017-Feb-19 19:31N 26°05' W 080°07'0 0.0
2017-Feb-19 18:31N 26°05' W 080°07'0 0.0
2017-Feb-19 17:31N 26°05' W 080°07'0 0.0
2017-Feb-19 16:31N 26°05' W 080°07'0 0.0
2017-Feb-19 15:22N 26°05' W 080°07'0 0.0
2017-Feb-19 14:22N 26°05' W 080°07'0 0.0
2017-Feb-19 13:25N 26°05' W 080°07'0 0.0
2017-Feb-19 12:25N 26°05' W 080°07'0 0.1
2017-Feb-19 11:33N 26°05' W 080°07'7 6.6
2017-Feb-19 10:34N 26°06' W 079°60'1211.5
2017-Feb-19 09:33N 26°01' W 079°48'1313.5
2017-Feb-19 08:33N 25°51' W 079°38'1017.3
2017-Feb-19 08:00N 25°42' W 079°42'818.9 160 / 151016.210.8 25.022.027.0
2017-Feb-19 07:34N 25°35' W 079°37'21817.4
2017-Feb-18 19:00N 22°24' W 077°42'23619.7 090 / 151016.510.8 30.024.329.0
2017-Feb-18 07:00N 20°30' W 074°00'19816.5 060 / 151015.910.8 26.019.927.0
2017-Feb-17 19:00N 17°12' W 073°48'7525.0 030 / 101016.710.8 29.026.229.0
2017-Feb-17 16:00N 16°24' W 072°48'17919.9 060 / 191018.810.8 26.023.129.0
2017-Feb-17 07:00N 14°18' W 070°36'   100 / 151013.110.8 26.023.129.0
Track history (hours):
 
Tides and Currents Weather Stations Pressure Air Temp Water Temp Dewpoint Dewpoint Depression Visibility Wind Speed Wind Dir Waves Ship Positions

Caribbean Princess

Operator: Princess Cruises

Last reported at 2017-Feb-26 03:23 UTC. Time now 2017-Feb-28 05:41 UTC.
Position N 24°34' W 079°34'.

Type: Passenger vessel. MMSI: 310423000.

Date/timePositionNaut miles runAvg speedWind from/ knotsBaromVisibWave heightAir tempDewpointWater temp
2017-Feb-26 03:23N 24°34' W 079°34'5418.8
2017-Feb-26 00:32N 25°27' W 079°38'1616.3
2017-Feb-25 23:34N 25°43' W 079°39'1716.8
2017-Feb-25 22:34N 25°54' W 079°53'1615.7
2017-Feb-25 21:34N 26°06' W 080°04'3 2.4
2017-Feb-25 20:31N 26°06' W 080°07'0 0.0
2017-Feb-25 19:28N 26°06' W 080°07'0 0.0
2017-Feb-25 18:31N 26°06' W 080°07'0 0.0
2017-Feb-25 17:31N 26°06' W 080°07'0 0.0
2017-Feb-25 16:31N 26°06' W 080°07'0 0.0
2017-Feb-25 15:31N 26°06' W 080°07'0 0.0
2017-Feb-25 14:19N 26°06' W 080°07'0 0.0
2017-Feb-25 13:31N 26°06' W 080°07'0 0.0
2017-Feb-25 12:31N 26°06' W 080°07'0 0.0
2017-Feb-25 11:33N 26°06' W 080°07'7 6.5
2017-Feb-25 10:33N 26°06' W 079°60'1212.3
2017-Feb-25 09:34N 26°02' W 079°47'1312.5
2017-Feb-25 08:34N 25°51' W 079°40'1414.2
2017-Feb-25 07:33N 25°37' W 079°39'1515.2
2017-Feb-25 06:33N 25°22' W 079°38'49315.9
2017-Feb-23 23:33N 20°37' W 086°55'8 8.0
2017-Feb-23 22:31N 20°29' W 086°59'0 0.0
2017-Feb-23 21:32N 20°29' W 086°59'0 0.0
2017-Feb-23 20:31N 20°29' W 086°59'0 0.0
2017-Feb-23 19:31N 20°29' W 086°59'0 0.0
2017-Feb-23 18:31N 20°29' W 086°59'0 0.0
2017-Feb-23 17:31N 20°29' W 086°59'0 0.0
2017-Feb-23 16:28N 20°29' W 086°59'0 0.0
2017-Feb-23 15:28N 20°29' W 086°59'0 0.0
2017-Feb-23 14:31N 20°29' W 086°59'0 0.0
2017-Feb-23 13:25N 20°29' W 086°59'0 0.2
2017-Feb-23 12:34N 20°29' W 086°59'8 7.9
2017-Feb-23 11:32N 20°23' W 087°04'35 0.7
2017-Feb-21 08:00N 20°00' W 086°36'24220.2 120 / 251017.610.8 27.024.129.0
2017-Feb-20 20:00N 23°00' W 083°42'24220.2 050 / 101016.510.8 30.025.829.0
2017-Feb-20 08:00N 24°42' W 079°42'5120.8 080 / 151016.910.8 24.017.625.0
2017-Feb-20 05:34N 25°31' W 079°53'1515.3
2017-Feb-20 04:33N 25°45' W 080°01'3 3.4
2017-Feb-20 03:33N 25°44' W 079°58'2221.8
2017-Feb-20 02:34N 25°29' W 079°40'6 2.9
2017-Feb-20 00:27N 25°23' W 079°39'1618.6
2017-Feb-19 23:33N 25°39' W 079°39'1818.0
2017-Feb-19 22:34N 25°54' W 079°51'1716.6
2017-Feb-19 21:33N 26°05' W 080°04'2 2.3
2017-Feb-19 20:31N 26°05' W 080°07'0 0.0
2017-Feb-19 19:31N 26°05' W 080°07'0 0.0
2017-Feb-19 18:31N 26°05' W 080°07'0 0.0
2017-Feb-19 17:31N 26°05' W 080°07'0 0.0
2017-Feb-19 16:31N 26°05' W 080°07'0 0.0
2017-Feb-19 15:22N 26°05' W 080°07'0 0.0
2017-Feb-19 14:22N 26°05' W 080°07'0 0.0
2017-Feb-19 13:25N 26°05' W 080°07'0 0.0
2017-Feb-19 12:25N 26°05' W 080°07'0 0.1
2017-Feb-19 11:33N 26°05' W 080°07'7 6.6
2017-Feb-19 10:34N 26°06' W 079°60'1211.5
2017-Feb-19 09:33N 26°01' W 079°48'1313.5
2017-Feb-19 08:33N 25°51' W 079°38'1017.3
2017-Feb-19 08:00N 25°42' W 079°42'818.9 160 / 151016.210.8 25.022.027.0
2017-Feb-19 07:34N 25°35' W 079°37'21817.4
2017-Feb-18 19:00N 22°24' W 077°42'23619.7 090 / 151016.510.8 30.024.329.0
2017-Feb-18 07:00N 20°30' W 074°00'19816.5 060 / 151015.910.8 26.019.927.0
2017-Feb-17 19:00N 17°12' W 073°48'7525.0 030 / 101016.710.8 29.026.229.0
2017-Feb-17 16:00N 16°24' W 072°48'17919.9 060 / 191018.810.8 26.023.129.0
2017-Feb-17 07:00N 14°18' W 070°36'   100 / 151013.110.8 26.023.129.0

Dump ship's entire track history